ADDS TAF Board (Experimental) INFO Settings

IDs: Format: Expanded Condensed

KDFW - Dallas-Ft Worth Intl, TX, US

Issued at 0520 UTC 03 Mar 2015
Updated at: 0850 UTC 03 Mar 2015
Time0753Z 03/09Z 03/10Z 03/11Z 03/12Z 03/13Z 03/14Z 03/15Z 03/16Z 03/17Z 03/18Z 03/19Z 03/20Z 03/21Z
Type OBS PRVL
  [TEMP]  
PRVL PRVL
  [TEMP]  
PRVL
  [TEMP]  
PRVL
  [TEMP]  
PRVL PRVL PRVL PRVL PRVL PRVL PRVL PRVL
VIS 0 0.75
  [0.25]  
0.75 1
  [0.5]  
1
  [0.5]  
1
  [0.5]  
1 1 4 4 4 4 >6 >6
CIG 2 2
  [1]  
2 4
  [2]  
4
  [2]  
4
  [2]  
4 4 7 7 7 7 15 15
Cover OVX OVX
  [OVX]  
OVX OVC
  [OVX]  
OVC
  [OVX]  
OVC
  [OVX]  
OVC OVC OVC OVC OVC OVC OVC OVC
FltCat LIFR LIFR
  [LIFR]  
LIFR LIFR
  [LIFR]  
LIFR
  [LIFR]  
LIFR
  [LIFR]  
LIFR LIFR IFR IFR IFR IFR MVFR MVFR
WX DZ FG -DZ BR
  [FG]  
-DZ BR -DZ BR
  [FG]  
-DZ BR
  [FG]  
-DZ BR
  [FG]  
-DZ BR -DZ BR BR BR BR BR VCSH VCSH
WDir 250 180
[180]
180 200
[200]
200
[200]
200
[200]
200 200 190 190 190 190 180 180
WSpd 6 3
  [3]  
3 4
  [4]  
4
  [4]  
4
  [4]  
4 4 10 10 10 10 14 14
WGst -- --
  [--]  
-- --
  [--]  
--
  [--]  
--
  [--]  
-- -- -- -- -- -- -- --
R13/31
XWnd -5 -2 -2 -4 -4 -4 -4 -4 -8 -8 -8 -8 -10 -10
XGst -- 0 -- 0 0 0 -- -- -- -- -- -- -- --
HWnd -3 2 2 2 2 2 2 2 6 6 6 6 10 10
HGst -- 0 -- 0 0 0 -- -- -- -- -- -- -- --
R17/35
XWnd -6 0 0 -1 -1 -1 -1 -1 -2 -2 -2 -2 0 0
XGst -- 0 -- 0 0 0 -- -- -- -- -- -- -- --
HWnd 2 3 3 4 4 4 4 4 10 10 10 10 14 14
HGst -- 0 -- 0 0 0 -- -- -- -- -- -- -- --
R18/36
XWnd -6 0 0 -1 -1 -1 -1 -1 -2 -2 -2 -2 0 0
XGst -- 0 -- 0 0 0 -- -- -- -- -- -- -- --
HWnd 2 3 3 4 4 4 4 4 10 10 10 10 14 14
HGst -- 0 -- 0 0 0 -- -- -- -- -- -- -- --

NOTE: TEMPO conditions in [brackets]. Keep in mind TEMPO conditions might be better (lower impact) than prevailing conditions.

Raw TAF
KDFW 030520Z 0306/0412 18003KT 3/4SM -DZ BR VV002
  TEMPO 0306/0310 1/4SM FG VV001
  FM031100 20004KT 1SM -DZ BR OVC004
  TEMPO 0311/0314 1/2SM FG VV002
  FM031600 19010KT 4SM BR OVC007
  FM032000 18014KT P6SM VCSH OVC015
  FM040200 16009KT 5SM BR VCSH OVC008


Raw METAR
KDFW 030753Z 25006KT 0SM R17C/2200V2400FT DZ FG VV002 04/04 A3011 RMK AO2 SFC VIS 1/4 SLP196 P0000 T00440044
KDFW 030653Z 00000KT 0SM R17C/3500V4000FT DZ FG VV002 04/04 A3010 RMK AO2 SFC VIS 1/2 SLP194 P0000 T00440044
KDFW 030553Z 22004KT 0SM R17C/4000V5000FT DZ FG VV002 04/04 A3014 RMK AO2 SFC VIS 1/4 SLP208 P0001 60001 T00440044 10044 20039 400440006 58011

METAR Board
Radar Display
Forecast Discussion

TAF Board Legend

Potential Impact
Threat None Slight Moderate High
Visibility (sm) ≥5.1 5.1>X≥3 3>X≥1 <1
Ceiling (100 ft) ≥30.1 30.1>X≥10 10>X≥5 <5
Wind Speed (kt) <10 10≤X<20 20≤X<30 ≥30
Wind Gust (kt) <15 15≤X<25 25≤X<35 ≥35
Weather No Wx Reported VCTS,-TS,-FZRA,SN TS,FZRA +TS,+FZRA,+SN